sensor_id;sensor_type;location;lat;lon;timestamp;pressure;altitude;pressure_sealevel;temperature;humidity
66543;BME280;53395;37.360;-122.046;2022-11-20T00:01:34;101518.84;;;15.51;35.96
66543;BME280;53395;37.360;-122.046;2022-11-20T00:04:01;101523.16;;;15.21;39.66
66543;BME280;53395;37.360;-122.046;2022-11-20T00:06:27;101525.00;;;15.17;39.86
66543;BME280;53395;37.360;-122.046;2022-11-20T00:08:58;101523.47;;;15.43;38.23
66543;BME280;53395;37.360;-122.046;2022-11-20T00:11:27;101531.78;;;15.26;39.67
66543;BME280;53395;37.360;-122.046;2022-11-20T00:13:56;101527.69;;;15.14;39.15
66543;BME280;53395;37.360;-122.046;2022-11-20T00:16:26;101537.44;;;15.12;39.82
66543;BME280;53395;37.360;-122.046;2022-11-20T00:18:53;101537.34;;;15.15;39.79
66543;BME280;53395;37.360;-122.046;2022-11-20T00:21:22;101538.44;;;15.07;39.58
66543;BME280;53395;37.360;-122.046;2022-11-20T00:23:49;101536.25;;;14.88;40.41
66543;BME280;53395;37.360;-122.046;2022-11-20T00:26:17;101541.88;;;14.73;41.11
66543;BME280;53395;37.360;-122.046;2022-11-20T00:28:48;101540.22;;;14.69;40.34
66543;BME280;53395;37.360;-122.046;2022-11-20T00:31:16;101538.03;;;14.47;41.15
66543;BME280;53395;37.360;-122.046;2022-11-20T00:33:43;101547.78;;;14.42;41.08
66543;BME280;53395;37.360;-122.046;2022-11-20T00:36:12;101549.16;;;14.60;40.77
66543;BME280;53395;37.360;-122.046;2022-11-20T00:38:39;101544.53;;;14.31;41.79
66543;BME280;53395;37.360;-122.046;2022-11-20T00:41:07;101549.22;;;14.15;42.82
66543;BME280;53395;37.360;-122.046;2022-11-20T00:43:34;101548.56;;;14.04;43.23
66543;BME280;53395;37.360;-122.046;2022-11-20T00:46:06;101552.03;;;14.07;43.75
66543;BME280;53395;37.360;-122.046;2022-11-20T00:48:33;101550.53;;;13.94;44.05
66543;BME280;53395;37.360;-122.046;2022-11-20T00:50:59;101556.03;;;13.80;43.63
66543;BME280;53395;37.360;-122.046;2022-11-20T00:53:26;101556.28;;;13.68;44.61
66543;BME280;53395;37.360;-122.046;2022-11-20T00:55:56;101557.69;;;13.39;47.07
66543;BME280;53395;37.360;-122.046;2022-11-20T00:58:24;101557.66;;;13.41;45.15
66543;BME280;53395;37.360;-122.046;2022-11-20T01:00:50;101556.91;;;13.34;46.62
66543;BME280;53395;37.360;-122.046;2022-11-20T01:03:17;101565.13;;;13.09;48.42
66543;BME280;53395;37.360;-122.046;2022-11-20T01:05:43;101557.66;;;12.85;47.69
66543;BME280;53395;37.360;-122.046;2022-11-20T01:08:10;101558.25;;;12.42;48.53
66543;BME280;53395;37.360;-122.046;2022-11-20T01:10:36;101562.94;;;12.82;47.95
66543;BME280;53395;37.360;-122.046;2022-11-20T01:13:02;101575.09;;;12.89;48.22
66543;BME280;53395;37.360;-122.046;2022-11-20T01:15:47;101571.88;;;12.68;49.35
66543;BME280;53395;37.360;-122.046;2022-11-20T01:18:13;101577.28;;;12.56;50.04
66543;BME280;53395;37.360;-122.046;2022-11-20T01:20:39;101575.59;;;12.54;51.06
66543;BME280;53395;37.360;-122.046;2022-11-20T01:23:06;101580.88;;;12.49;51.07
66543;BME280;53395;37.360;-122.046;2022-11-20T01:25:34;101586.09;;;12.51;52.89
66543;BME280;53395;37.360;-122.046;2022-11-20T01:28:00;101593.69;;;12.01;52.60
66543;BME280;53395;37.360;-122.046;2022-11-20T01:30:26;101600.13;;;11.63;54.80
66543;BME280;53395;37.360;-122.046;2022-11-20T01:32:55;101605.28;;;11.71;55.56
66543;BME280;53395;37.360;-122.046;2022-11-20T01:35:21;101600.28;;;11.46;56.43
66543;BME280;53395;37.360;-122.046;2022-11-20T01:37:47;101607.16;;;11.59;56.00
66543;BME280;53395;37.360;-122.046;2022-11-20T01:40:15;101618.81;;;11.18;58.11
66543;BME280;53395;37.360;-122.046;2022-11-20T01:42:51;101610.66;;;11.57;58.15
66543;BME280;53395;37.360;-122.046;2022-11-20T01:48:24;101612.28;;;12.54;56.12
66543;BME280;53395;37.360;-122.046;2022-11-20T01:50:52;101615.72;;;12.59;56.91
66543;BME280;53395;37.360;-122.046;2022-11-20T01:53:22;101611.38;;;13.17;55.22
66543;BME280;53395;37.360;-122.046;2022-11-20T01:55:53;101628.28;;;12.31;58.11
66543;BME280;53395;37.360;-122.046;2022-11-20T01:58:24;101628.19;;;12.37;58.38
66543;BME280;53395;37.360;-122.046;2022-11-20T02:00:52;101623.41;;;11.97;59.21
66543;BME280;53395;37.360;-122.046;2022-11-20T02:03:19;101628.47;;;11.15;61.59
66543;BME280;53395;37.360;-122.046;2022-11-20T02:05:57;101628.13;;;11.58;62.43
66543;BME280;53395;37.360;-122.046;2022-11-20T02:08:26;101635.91;;;11.64;68.65
66543;BME280;53395;37.360;-122.046;2022-11-20T02:10:54;101639.34;;;10.10;66.88
66543;BME280;53395;37.360;-122.046;2022-11-20T02:13:20;101637.66;;;9.66;69.65
66543;BME280;53395;37.360;-122.046;2022-11-20T02:16:30;101641.13;;;9.50;70.00
66543;BME280;53395;37.360;-122.046;2022-11-20T02:18:56;101653.31;;;9.31;71.33
66543;BME280;53395;37.360;-122.046;2022-11-20T02:24:15;101652.47;;;9.55;69.23
66543;BME280;53395;37.360;-122.046;2022-11-20T02:26:48;101653.31;;;9.54;68.20
66543;BME280;53395;37.360;-122.046;2022-11-20T02:29:25;101654.19;;;9.38;67.36
66543;BME280;53395;37.360;-122.046;2022-11-20T02:31:54;101655.91;;;9.31;67.62
66543;BME280;53395;37.360;-122.046;2022-11-20T02:34:21;101665.50;;;9.35;65.86
66543;BME280;53395;37.360;-122.046;2022-11-20T02:36:48;101667.19;;;9.16;65.04
66543;BME280;53395;37.360;-122.046;2022-11-20T02:39:15;101666.34;;;9.08;64.77
66543;BME280;53395;37.360;-122.046;2022-11-20T02:41:45;101669.81;;;9.08;64.68
66543;BME280;53395;37.360;-122.046;2022-11-20T02:44:11;101662.91;;;9.34;63.14
66543;BME280;53395;37.360;-122.046;2022-11-20T02:46:37;101668.91;;;8.99;64.37
66543;BME280;53395;37.360;-122.046;2022-11-20T02:49:04;101666.25;;;8.88;64.51
66543;BME280;53395;37.360;-122.046;2022-11-20T02:51:30;101675.78;;;8.78;65.04
66543;BME280;53395;37.360;-122.046;2022-11-20T02:53:57;101677.47;;;8.67;64.46
66543;BME280;53395;37.360;-122.046;2022-11-20T02:56:23;101676.63;;;8.71;64.65
66543;BME280;53395;37.360;-122.046;2022-11-20T02:58:50;101682.63;;;8.58;65.95
66543;BME280;53395;37.360;-122.046;2022-11-20T03:01:16;101676.53;;;8.53;65.03
66543;BME280;53395;37.360;-122.046;2022-11-20T03:03:42;101682.53;;;8.38;66.35
66543;BME280;53395;37.360;-122.046;2022-11-20T03:06:08;101678.19;;;8.38;66.46
66543;BME280;53395;37.360;-122.046;2022-11-20T03:08:35;101683.50;;;8.58;66.64
66543;BME280;53395;37.360;-122.046;2022-11-20T03:11:06;101681.72;;;8.46;66.24
66543;BME280;53395;37.360;-122.046;2022-11-20T03:13:33;101684.16;;;8.22;67.92
66543;BME280;53395;37.360;-122.046;2022-11-20T03:16:11;101686.59;;;7.96;68.36
66543;BME280;53395;37.360;-122.046;2022-11-20T03:18:39;101686.59;;;7.93;68.67
66543;BME280;53395;37.360;-122.046;2022-11-20T03:21:06;101687.44;;;7.93;69.24
66543;BME280;53395;37.360;-122.046;2022-11-20T03:23:33;101682.41;;;8.16;68.07
66543;BME280;53395;37.360;-122.046;2022-11-20T03:26:20;101689.25;;;8.07;68.56
66543;BME280;53395;37.360;-122.046;2022-11-20T03:28:51;101686.84;;;8.33;66.09
66543;BME280;53395;37.360;-122.046;2022-11-20T03:31:20;101680.69;;;8.23;66.59
66543;BME280;53395;37.360;-122.046;2022-11-20T03:33:46;101689.34;;;8.19;67.50
66543;BME280;53395;37.360;-122.046;2022-11-20T03:36:14;101685.72;;;7.97;68.54
66543;BME280;53395;37.360;-122.046;2022-11-20T03:38:41;101695.16;;;7.82;68.80
66543;BME280;53395;37.360;-122.046;2022-11-20T03:41:10;101700.47;;;7.93;68.54
66543;BME280;53395;37.360;-122.046;2022-11-20T03:43:37;101703.84;;;7.84;68.78
66543;BME280;53395;37.360;-122.046;2022-11-20T03:46:03;101705.88;;;8.24;66.60
66543;BME280;53395;37.360;-122.046;2022-11-20T03:48:30;101710.28;;;8.34;65.02
66543;BME280;53395;37.360;-122.046;2022-11-20T03:51:16;101710.88;;;7.96;67.17
66543;BME280;53395;37.360;-122.046;2022-11-20T03:54:04;101712.41;;;7.71;67.53
66543;BME280;53395;37.360;-122.046;2022-11-20T03:56:36;101721.91;;;7.66;68.85
66543;BME280;53395;37.360;-122.046;2022-11-20T03:59:03;101717.22;;;7.27;70.15
66543;BME280;53395;37.360;-122.046;2022-11-20T04:01:32;101717.06;;;7.16;70.99
66543;BME280;53395;37.360;-122.046;2022-11-20T04:03:59;101717.22;;;7.27;72.10
66543;BME280;53395;37.360;-122.046;2022-11-20T04:06:32;101725.88;;;7.27;71.27
66543;BME280;53395;37.360;-122.046;2022-11-20T04:08:59;101725.97;;;7.38;71.63
66543;BME280;53395;37.360;-122.046;2022-11-20T04:11:27;101725.88;;;7.27;71.94
66543;BME280;53395;37.360;-122.046;2022-11-20T04:14:00;101723.88;;;7.05;72.46
66543;BME280;53395;37.360;-122.046;2022-11-20T04:16:29;101723.22;;;7.23;71.90
66543;BME280;53395;37.360;-122.046;2022-11-20T04:18:57;101729.94;;;7.04;74.17
66543;BME280;53395;37.360;-122.046;2022-11-20T04:21:24;101735.19;;;7.08;73.97
66543;BME280;53395;37.360;-122.046;2022-11-20T04:23:52;101730.28;;;7.36;74.19
66543;BME280;53395;37.360;-122.046;2022-11-20T04:26:19;101738.25;;;7.51;72.75
66543;BME280;53395;37.360;-122.046;2022-11-20T04:28:45;101738.97;;;7.38;73.46
66543;BME280;53395;37.360;-122.046;2022-11-20T04:31:20;101741.34;;;7.16;74.12
66543;BME280;53395;37.360;-122.046;2022-11-20T04:33:47;101735.94;;;6.96;75.32
66543;BME280;53395;37.360;-122.046;2022-11-20T04:36:16;101749.78;;;6.97;76.39
66543;BME280;53395;37.360;-122.046;2022-11-20T04:38:43;101735.69;;;6.80;76.72
66543;BME280;53395;37.360;-122.046;2022-11-20T04:41:17;101747.09;;;6.91;75.90
66543;BME280;53395;37.360;-122.046;2022-11-20T04:43:52;101740.16;;;6.91;76.65
66543;BME280;53395;37.360;-122.046;2022-11-20T04:46:20;101739.13;;;6.77;77.24
66543;BME280;53395;37.360;-122.046;2022-11-20T04:48:47;101741.66;;;6.71;78.50
66543;BME280;53395;37.360;-122.046;2022-11-20T04:51:13;101739.72;;;6.56;78.32
66543;BME280;53395;37.360;-122.046;2022-11-20T04:53:40;101749.06;;;6.43;80.19
66543;BME280;53395;37.360;-122.046;2022-11-20T04:56:08;101743.84;;;6.40;80.71
66543;BME280;53395;37.360;-122.046;2022-11-20T04:58:36;101752.41;;;6.36;80.14
66543;BME280;53395;37.360;-122.046;2022-11-20T05:01:03;101759.41;;;6.40;79.89
66543;BME280;53395;37.360;-122.046;2022-11-20T05:03:30;101758.91;;;6.66;80.47
66543;BME280;53395;37.360;-122.046;2022-11-20T05:05:56;101768.91;;;6.38;80.47
66543;BME280;53395;37.360;-122.046;2022-11-20T05:08:25;101768.16;;;6.45;80.48
66543;BME280;53395;37.360;-122.046;2022-11-20T05:10:51;101777.75;;;6.51;80.09
66543;BME280;53395;37.360;-122.046;2022-11-20T05:13:17;101774.97;;;6.39;80.06
66543;BME280;53395;37.360;-122.046;2022-11-20T05:15:44;101776.50;;;6.27;80.51
66543;BME280;53395;37.360;-122.046;2022-11-20T05:18:10;101775.63;;;6.25;80.48
66543;BME280;53395;37.360;-122.046;2022-11-20T05:20:36;101777.06;;;6.08;82.35
66543;BME280;53395;37.360;-122.046;2022-11-20T05:23:02;101780.34;;;5.96;82.02
66543;BME280;53395;37.360;-122.046;2022-11-20T05:25:28;101783.28;;;6.18;82.40
66543;BME280;53395;37.360;-122.046;2022-11-20T05:27:55;101785.06;;;6.19;81.72
66543;BME280;53395;37.360;-122.046;2022-11-20T05:30:21;101788.38;;;6.10;82.52
66543;BME280;53395;37.360;-122.046;2022-11-20T05:32:47;101789.69;;;5.88;83.15
66543;BME280;53395;37.360;-122.046;2022-11-20T05:35:13;101789.44;;;5.74;83.15
66543;BME280;53395;37.360;-122.046;2022-11-20T05:37:39;101796.53;;;5.84;83.79
66543;BME280;53395;37.360;-122.046;2022-11-20T05:40:06;101788.72;;;5.83;83.35
66543;BME280;53395;37.360;-122.046;2022-11-20T05:42:33;101802.09;;;5.57;84.10
66543;BME280;53395;37.360;-122.046;2022-11-20T05:45:00;101796.75;;;5.49;85.82
66543;BME280;53395;37.360;-122.046;2022-11-20T05:47:31;101798.34;;;5.43;86.63
66543;BME280;53395;37.360;-122.046;2022-11-20T05:49:58;101794.16;;;5.49;85.92
66543;BME280;53395;37.360;-122.046;2022-11-20T05:52:24;101790.34;;;5.30;86.48
66543;BME280;53395;37.360;-122.046;2022-11-20T05:54:50;101794.00;;;5.40;85.92
66543;BME280;53395;37.360;-122.046;2022-11-20T05:57:16;101793.25;;;5.46;86.00
66543;BME280;53395;37.360;-122.046;2022-11-20T05:59:43;101799.75;;;5.25;85.55
66543;BME280;53395;37.360;-122.046;2022-11-20T06:02:09;101807.28;;;5.15;86.60
66543;BME280;53395;37.360;-122.046;2022-11-20T06:04:35;101819.53;;;5.20;86.66
66543;BME280;53395;37.360;-122.046;2022-11-20T06:07:01;101819.25;;;5.06;87.27
66543;BME280;53395;37.360;-122.046;2022-11-20T06:09:28;101813.09;;;5.03;88.22
66543;BME280;53395;37.360;-122.046;2022-11-20T06:11:54;101820.72;;;4.95;88.11
66543;BME280;53395;37.360;-122.046;2022-11-20T06:14:20;101817.88;;;4.83;88.31
66543;BME280;53395;37.360;-122.046;2022-11-20T06:16:46;101822.28;;;4.87;88.11
66543;BME280;53395;37.360;-122.046;2022-11-20T06:19:12;101816.78;;;4.73;89.30
66543;BME280;53395;37.360;-122.046;2022-11-20T06:21:39;101812.69;;;4.83;86.98
66543;BME280;53395;37.360;-122.046;2022-11-20T06:24:05;101824.34;;;4.64;87.93
66543;BME280;53395;37.360;-122.046;2022-11-20T06:26:32;101816.31;;;6.28;90.97
66543;BME280;53395;37.360;-122.046;2022-11-20T06:28:58;101820.50;;;4.84;88.11
66543;BME280;53395;37.360;-122.046;2022-11-20T06:31:25;101821.66;;;4.59;89.07
66543;BME280;53395;37.360;-122.046;2022-11-20T06:33:52;101826.66;;;4.52;90.03
66543;BME280;53395;37.360;-122.046;2022-11-20T06:36:20;101825.75;;;4.50;89.99
66543;BME280;53395;37.360;-122.046;2022-11-20T06:38:47;101835.03;;;4.41;92.79
66543;BME280;53395;37.360;-122.046;2022-11-20T06:41:16;101843.53;;;4.36;93.81
66543;BME280;53395;37.360;-122.046;2022-11-20T06:43:43;101833.75;;;4.26;91.86
66543;BME280;53395;37.360;-122.046;2022-11-20T06:46:11;101839.66;;;4.20;91.47
66543;BME280;53395;37.360;-122.046;2022-11-20T06:48:37;101836.16;;;4.16;91.99
66543;BME280;53395;37.360;-122.046;2022-11-20T06:51:05;101843.88;;;4.15;92.25
66543;BME280;53395;37.360;-122.046;2022-11-20T06:53:32;101838.69;;;4.15;92.01
66543;BME280;53395;37.360;-122.046;2022-11-20T06:55:58;101843.97;;;4.19;91.27
66543;BME280;53395;37.360;-122.046;2022-11-20T06:58:29;101839.50;;;4.14;90.92
66543;BME280;53395;37.360;-122.046;2022-11-20T07:01:00;101842.03;;;4.11;90.58
66543;BME280;53395;37.360;-122.046;2022-11-20T07:03:26;101837.72;;;4.11;91.13
66543;BME280;53395;37.360;-122.046;2022-11-20T07:05:56;101847.19;;;4.11;90.38
66543;BME280;53395;37.360;-122.046;2022-11-20T07:08:23;101842.75;;;4.05;91.15
66543;BME280;53395;37.360;-122.046;2022-11-20T07:10:49;101834.06;;;4.03;91.47
66543;BME280;53395;37.360;-122.046;2022-11-20T07:13:16;101841.47;;;3.89;92.52
66543;BME280;53395;37.360;-122.046;2022-11-20T07:15:42;101840.41;;;3.81;93.69
66543;BME280;53395;37.360;-122.046;2022-11-20T07:18:09;101835.97;;;3.77;92.92
66543;BME280;53395;37.360;-122.046;2022-11-20T07:20:35;101847.25;;;3.79;93.75
66543;BME280;53395;37.360;-122.046;2022-11-20T07:23:01;101847.06;;;3.73;97.84
66543;BME280;53395;37.360;-122.046;2022-11-20T07:25:28;101852.31;;;3.76;96.99
66543;BME280;53395;37.360;-122.046;2022-11-20T07:27:59;101852.38;;;3.77;95.88
66543;BME280;53395;37.360;-122.046;2022-11-20T07:30:29;101857.75;;;3.85;95.86
66543;BME280;53395;37.360;-122.046;2022-11-20T07:32:56;101841.34;;;3.85;94.82
66543;BME280;53395;37.360;-122.046;2022-11-20T07:35:24;101851.06;;;3.93;94.73
66543;BME280;53395;37.360;-122.046;2022-11-20T07:37:51;101849.97;;;3.84;95.69
66543;BME280;53395;37.360;-122.046;2022-11-20T07:40:17;101846.31;;;3.77;94.53
66543;BME280;53395;37.360;-122.046;2022-11-20T07:42:54;101851.78;;;3.88;95.07
66543;BME280;53395;37.360;-122.046;2022-11-20T07:45:22;101850.94;;;3.89;95.98
66543;BME280;53395;37.360;-122.046;2022-11-20T07:47:49;101849.09;;;3.85;94.98
66543;BME280;53395;37.360;-122.046;2022-11-20T07:50:16;101852.50;;;3.82;94.19
66543;BME280;53395;37.360;-122.046;2022-11-20T07:52:42;101852.44;;;4.12;95.13
66543;BME280;53395;37.360;-122.046;2022-11-20T07:55:10;101847.09;;;4.06;93.41
66543;BME280;53395;37.360;-122.046;2022-11-20T07:57:36;101844.25;;;3.97;92.42
66543;BME280;53395;37.360;-122.046;2022-11-20T08:00:04;101844.69;;;3.80;92.70
66543;BME280;53395;37.360;-122.046;2022-11-20T08:02:30;101845.91;;;3.62;93.55
66543;BME280;53395;37.360;-122.046;2022-11-20T08:04:56;101834.38;;;3.50;96.07
66543;BME280;53395;37.360;-122.046;2022-11-20T08:07:23;101840.19;;;3.42;94.11
66543;BME280;53395;37.360;-122.046;2022-11-20T08:09:49;101842.91;;;3.46;95.03
66543;BME280;53395;37.360;-122.046;2022-11-20T08:12:19;101846.97;;;3.38;97.88
66543;BME280;53395;37.360;-122.046;2022-11-20T08:15:05;101837.47;;;3.37;98.29
66543;BME280;53395;37.360;-122.046;2022-11-20T08:17:31;101850.66;;;3.46;97.56
66543;BME280;53395;37.360;-122.046;2022-11-20T08:19:58;101842.72;;;3.40;96.01
66543;BME280;53395;37.360;-122.046;2022-11-20T08:22:24;101840.06;;;3.38;94.75
66543;BME280;53395;37.360;-122.046;2022-11-20T08:24:50;101824.03;;;3.18;95.64
66543;BME280;53395;37.360;-122.046;2022-11-20T08:27:17;101839.72;;;3.25;94.84
66543;BME280;53395;37.360;-122.046;2022-11-20T08:29:43;101836.09;;;3.20;98.30
66543;BME280;53395;37.360;-122.046;2022-11-20T08:32:09;101842.91;;;3.16;98.94
66543;BME280;53395;37.360;-122.046;2022-11-20T08:34:35;101829.13;;;3.17;98.82
66543;BME280;53395;37.360;-122.046;2022-11-20T08:37:02;101823.66;;;3.06;97.86
66543;BME280;53395;37.360;-122.046;2022-11-20T08:39:28;101828.97;;;3.11;96.24
66543;BME280;53395;37.360;-122.046;2022-11-20T08:41:54;101825.19;;;3.00;98.64
66543;BME280;53395;37.360;-122.046;2022-11-20T08:44:20;101828.69;;;3.02;97.23
66543;BME280;53395;37.360;-122.046;2022-11-20T08:46:47;101828.41;;;2.92;98.60
66543;BME280;53395;37.360;-122.046;2022-11-20T08:49:14;101832.44;;;2.83;100.00
66543;BME280;53395;37.360;-122.046;2022-11-20T08:51:40;101826.25;;;2.78;100.00
66543;BME280;53395;37.360;-122.046;2022-11-20T08:54:07;101821.84;;;2.75;100.00
66543;BME280;53395;37.360;-122.046;2022-11-20T08:56:34;101826.13;;;2.73;100.00
66543;BME280;53395;37.360;-122.046;2022-11-20T08:59:00;101821.75;;;2.72;100.00
66543;BME280;53395;37.360;-122.046;2022-11-20T09:01:28;101824.97;;;2.65;100.00
66543;BME280;53395;37.360;-122.046;2022-11-20T09:03:58;101816.47;;;2.67;100.00
66543;BME280;53395;37.360;-122.046;2022-11-20T09:06:25;101811.13;;;2.61;100.00
66543;BME280;53395;37.360;-122.046;2022-11-20T09:08:52;101822.91;;;2.53;100.00
66543;BME280;53395;37.360;-122.046;2022-11-20T09:11:19;101818.47;;;2.49;100.00
66543;BME280;53395;37.360;-122.046;2022-11-20T09:13:45;101816.13;;;2.57;100.00
66543;BME280;53395;37.360;-122.046;2022-11-20T09:16:11;101811.88;;;2.59;100.00
66543;BME280;53395;37.360;-122.046;2022-11-20T09:18:38;101819.38;;;2.51;100.00
66543;BME280;53395;37.360;-122.046;2022-11-20T09:21:10;101823.63;;;2.49;100.00
66543;BME280;53395;37.360;-122.046;2022-11-20T09:23:38;101818.38;;;2.46;100.00
66543;BME280;53395;37.360;-122.046;2022-11-20T09:26:04;101817.28;;;2.39;100.00
66543;BME280;53395;37.360;-122.046;2022-11-20T09:28:31;101823.03;;;2.30;100.00
66543;BME280;53395;37.360;-122.046;2022-11-20T09:30:58;101818.13;;;2.38;100.00
66543;BME280;53395;37.360;-122.046;2022-11-20T09:33:25;101823.09;;;2.32;100.00
66543;BME280;53395;37.360;-122.046;2022-11-20T09:35:51;101818.50;;;2.50;100.00
66543;BME280;53395;37.360;-122.046;2022-11-20T09:38:18;101824.94;;;2.36;100.00
66543;BME280;53395;37.360;-122.046;2022-11-20T09:40:50;101814.78;;;2.41;100.00
66543;BME280;53395;37.360;-122.046;2022-11-20T09:44:13;101820.09;;;2.47;100.00
66543;BME280;53395;37.360;-122.046;2022-11-20T09:46:34;101815.09;;;2.51;100.00
66543;BME280;53395;37.360;-122.046;2022-11-20T09:51:56;101825.91;;;2.67;100.00
66543;BME280;53395;37.360;-122.046;2022-11-20T09:54:33;101825.97;;;2.41;100.00
66543;BME280;53395;37.360;-122.046;2022-11-20T09:57:05;101820.81;;;2.41;100.00
66543;BME280;53395;37.360;-122.046;2022-11-20T10:02:08;101828.25;;;2.06;100.00
66543;BME280;53395;37.360;-122.046;2022-11-20T10:04:44;101823.22;;;2.09;100.00
66543;BME280;53395;37.360;-122.046;2022-11-20T10:07:20;101817.75;;;2.00;100.00
66543;BME280;53395;37.360;-122.046;2022-11-20T10:09:52;101816.22;;;2.07;100.00
66543;BME280;53395;37.360;-122.046;2022-11-20T10:12:27;101831.16;;;2.16;100.00
66543;BME280;53395;37.360;-122.046;2022-11-20T10:26:04;101835.84;;;2.27;100.00
66543;BME280;53395;37.360;-122.046;2022-11-20T10:31:09;101831.97;;;2.40;100.00
66543;BME280;53395;37.360;-122.046;2022-11-20T10:33:40;101831.75;;;2.34;100.00
66543;BME280;53395;37.360;-122.046;2022-11-20T10:36:19;101826.59;;;2.34;100.00
66543;BME280;53395;37.360;-122.046;2022-11-20T10:38:59;101828.19;;;2.30;100.00
66543;BME280;53395;37.360;-122.046;2022-11-20T10:41:38;101830.44;;;2.20;100.00
66543;BME280;53395;37.360;-122.046;2022-11-20T10:44:16;101821.13;;;2.25;100.00
66543;BME280;53395;37.360;-122.046;2022-11-20T10:47:03;101821.91;;;2.22;100.00
66543;BME280;53395;37.360;-122.046;2022-11-20T10:49:31;101824.97;;;1.85;100.00
66543;BME280;53395;37.360;-122.046;2022-11-20T10:57:48;101824.75;;;2.04;100.00
66543;BME280;53395;37.360;-122.046;2022-11-20T11:00:18;56962.25;;;-145.99;100.00
66543;BME280;53395;37.360;-122.046;2022-11-20T11:02:48;101832.59;;;2.07;100.00
66543;BME280;53395;37.360;-122.046;2022-11-20T11:05:42;101823.31;;;2.13;100.00
66543;BME280;53395;37.360;-122.046;2022-11-20T11:08:16;101828.16;;;2.03;100.00
66543;BME280;53395;37.360;-122.046;2022-11-20T11:10:59;101833.47;;;1.82;100.00
66543;BME280;53395;37.360;-122.046;2022-11-20T11:13:29;101834.63;;;1.90;100.00
66543;BME280;53395;37.360;-122.046;2022-11-20T11:15:56;101829.31;;;1.86;100.00
66543;BME280;53395;37.360;-122.046;2022-11-20T11:18:31;101841.38;;;1.63;100.00
66543;BME280;53395;37.360;-122.046;2022-11-20T11:21:01;101835.19;;;1.58;100.00
66543;BME280;53395;37.360;-122.046;2022-11-20T11:23:40;101837.16;;;1.65;100.00
66543;BME280;53395;37.360;-122.046;2022-11-20T11:26:20;101839.16;;;1.74;100.00
66543;BME280;53395;37.360;-122.046;2022-11-20T11:28:57;101836.66;;;1.51;100.00
66543;BME280;53395;37.360;-122.046;2022-11-20T11:31:32;101842.59;;;1.48;100.00
66543;BME280;53395;37.360;-122.046;2022-11-20T11:34:06;101839.06;;;1.71;100.00
66543;BME280;53395;37.360;-122.046;2022-11-20T11:36:34;101837.53;;;1.76;100.00
66543;BME280;53395;37.360;-122.046;2022-11-20T11:39:03;101837.25;;;1.68;100.00
66543;BME280;53395;37.360;-122.046;2022-11-20T11:41:34;101831.25;;;1.67;100.00
66543;BME280;53395;37.360;-122.046;2022-11-20T11:47:02;101850.00;;;1.39;100.00
66543;BME280;53395;37.360;-122.046;2022-11-20T11:49:29;101846.31;;;1.33;100.00
66543;BME280;53395;37.360;-122.046;2022-11-20T12:00:06;101840.88;;;1.73;100.00
66543;BME280;53395;37.360;-122.046;2022-11-20T12:16:04;101848.78;;;1.54;100.00
66543;BME280;53395;37.360;-122.046;2022-11-20T12:18:31;101849.91;;;1.62;100.00
66543;BME280;53395;37.360;-122.046;2022-11-20T12:21:07;101855.97;;;1.62;100.00
66543;BME280;53395;37.360;-122.046;2022-11-20T12:23:59;101858.66;;;1.65;100.00
66543;BME280;53395;37.360;-122.046;2022-11-20T12:34:54;101856.84;;;1.39;100.00
66543;BME280;53395;37.360;-122.046;2022-11-20T12:40:27;101864.84;;;1.24;100.00
66543;BME280;53395;37.360;-122.046;2022-11-20T12:49:04;101870.03;;;1.48;100.00
66543;BME280;53395;37.360;-122.046;2022-11-20T13:00:08;101879.44;;;1.01;100.00
66543;BME280;53395;37.360;-122.046;2022-11-20T13:05:59;101883.81;;;1.03;100.00
66543;BME280;53395;37.360;-122.046;2022-11-20T13:08:37;101887.41;;;1.07;100.00
66543;BME280;53395;37.360;-122.046;2022-11-20T13:19:04;101890.09;;;0.88;100.00
66543;BME280;53395;37.360;-122.046;2022-11-20T13:21:42;101900.63;;;0.73;100.00
66543;BME280;53395;37.360;-122.046;2022-11-20T13:24:28;101900.59;;;0.71;100.00
66543;BME280;53395;37.360;-122.046;2022-11-20T13:29:35;101900.38;;;0.88;100.00
66543;BME280;53395;37.360;-122.046;2022-11-20T13:34:30;101894.88;;;0.78;100.00
66543;BME280;53395;37.360;-122.046;2022-11-20T13:36:58;101898.03;;;0.94;100.00
66543;BME280;53395;37.360;-122.046;2022-11-20T13:39:32;101895.34;;;0.91;100.00
66543;BME280;53395;37.360;-122.046;2022-11-20T13:42:02;101900.75;;;0.97;100.00
66543;BME280;53395;37.360;-122.046;2022-11-20T13:44:39;101901.16;;;1.08;100.00
66543;BME280;53395;37.360;-122.046;2022-11-20T13:47:22;101909.13;;;1.14;100.00
66543;BME280;53395;37.360;-122.046;2022-11-20T13:49:49;101903.63;;;1.04;100.00
66543;BME280;53395;37.360;-122.046;2022-11-20T13:55:23;101904.16;;;0.75;100.00
66543;BME280;53395;37.360;-122.046;2022-11-20T13:58:09;101913.31;;;0.68;100.00
66543;BME280;53395;37.360;-122.046;2022-11-20T14:00:57;101917.41;;;0.63;100.00
66543;BME280;53395;37.360;-122.046;2022-11-20T14:03:25;101920.03;;;0.44;100.00
66543;BME280;53395;37.360;-122.046;2022-11-20T14:05:56;101927.38;;;0.55;100.00
66543;BME280;53395;37.360;-122.046;2022-11-20T14:08:55;101924.88;;;0.57;100.00
66543;BME280;53395;37.360;-122.046;2022-11-20T14:11:27;101931.69;;;0.56;100.00
66543;BME280;53395;37.360;-122.046;2022-11-20T14:16:38;101935.16;;;0.36;100.00
66543;BME280;53395;37.360;-122.046;2022-11-20T14:24:45;101938.13;;;0.45;100.00
66543;BME280;53395;37.360;-122.046;2022-11-20T14:27:20;101930.81;;;0.35;100.00